createdAt,value
2019-01-16T00:02:16.008Z,7.70
2019-01-16T00:05:05.890Z,11.67
2019-01-16T00:07:58.895Z,10.83
2019-01-16T00:10:44.881Z,8.27
2019-01-16T00:13:32.036Z,12.37
2019-01-16T00:16:10.444Z,9.03
2019-01-16T00:19:00.406Z,10.93
2019-01-16T00:21:52.991Z,10.73
2019-01-16T00:24:40.674Z,9.10
2019-01-16T00:27:29.116Z,7.70
2019-01-16T00:30:15.388Z,10.67
2019-01-16T00:33:06.126Z,10.17
2019-01-16T00:35:52.527Z,9.97
2019-01-16T00:38:47.710Z,10.07
2019-01-16T00:41:37.676Z,10.30
2019-01-16T00:44:26.435Z,10.20
2019-01-16T00:47:15.912Z,10.80
2019-01-16T00:50:18.089Z,11.17
2019-01-16T00:53:04.893Z,11.13
2019-01-16T00:55:53.343Z,9.60
2019-01-16T00:58:50.904Z,11.60
2019-01-16T01:01:30.869Z,12.43
2019-01-16T01:04:16.948Z,10.33
2019-01-16T01:07:06.180Z,9.13
2019-01-16T01:10:11.965Z,11.07
2019-01-16T01:13:01.940Z,10.03
2019-01-16T01:15:50.713Z,9.83
2019-01-16T01:18:40.783Z,11.23
2019-01-16T01:21:41.891Z,13.43
2019-01-16T01:24:24.355Z,11.63
2019-01-16T01:27:12.818Z,11.70
2019-01-16T01:30:06.368Z,11.03
2019-01-16T01:32:52.416Z,9.97
2019-01-16T01:35:38.891Z,10.80
2019-01-16T01:38:32.463Z,12.53
2019-01-16T01:41:20.451Z,10.20
2019-01-16T01:44:13.670Z,12.17
2019-01-16T01:47:02.031Z,11.93
2019-01-16T01:49:42.900Z,11.73
2019-01-16T01:52:39.086Z,10.43
2019-01-16T01:55:34.473Z,12.07
2019-01-16T01:58:27.855Z,10.90
2019-01-16T03:02:19.318Z,49.53
2019-01-16T03:05:03.217Z,32.03
2019-01-16T03:08:02.736Z,29.10
2019-01-16T03:10:48.230Z,21.23
2019-01-16T03:13:40.918Z,19.03
2019-01-16T03:16:30.451Z,16.50
2019-01-16T03:19:19.800Z,15.63
2019-01-16T03:22:10.089Z,14.90
2019-01-16T03:24:59.564Z,15.33
2019-01-16T03:27:54.874Z,14.23
2019-01-16T03:30:48.350Z,14.73
2019-01-16T03:33:36.842Z,12.73
2019-01-16T03:36:25.414Z,13.00
2019-01-16T03:39:08.264Z,16.57
2019-01-16T03:41:57.837Z,14.00
2019-01-16T03:44:53.730Z,13.80
2019-01-16T03:47:49.612Z,13.23
2019-01-16T03:50:54.386Z,14.40
2019-01-16T03:53:43.481Z,12.63
2019-01-16T03:56:32.852Z,19.10
2019-01-16T03:59:28.786Z,16.60
2019-01-16T04:02:12.022Z,14.23
2019-01-16T04:04:51.344Z,15.57
2019-01-16T04:07:35.910Z,16.03
2019-01-16T04:10:25.876Z,15.20
2019-01-16T04:13:05.034Z,20.43
2019-01-16T04:15:46.247Z,16.10
2019-01-16T04:18:44.550Z,19.33
2019-01-16T04:21:46.550Z,19.40
2019-01-16T04:24:44.805Z,14.33
2019-01-16T04:27:36.025Z,21.50
2019-01-16T04:30:31.032Z,18.53
2019-01-16T04:33:26.749Z,20.50
2019-01-16T04:36:22.063Z,34.07
2019-01-16T04:39:18.531Z,33.17
2019-01-16T04:42:12.781Z,38.77
2019-01-16T04:45:05.119Z,40.57
2019-01-16T04:48:04.558Z,86.47
2019-01-16T04:51:01.560Z,30.77
2019-01-16T04:54:09.791Z,37.53
2019-01-16T04:57:00.121Z,33.87
2019-01-16T05:00:05.529Z,34.93
2019-01-16T05:02:55.400Z,40.37
2019-01-16T05:05:52.456Z,55.03
2019-01-16T05:08:50.785Z,44.50
2019-01-16T05:11:46.436Z,91.80
2019-01-16T05:14:32.298Z,33.03
2019-01-16T05:17:20.902Z,42.77
2019-01-16T05:20:09.975Z,65.20
2019-01-16T05:23:09.496Z,44.20
2019-01-16T05:25:53.768Z,65.43
2019-01-16T05:28:42.791Z,41.67
2019-01-16T05:31:32.775Z,28.03
2019-01-16T05:34:21.847Z,43.23
2019-01-16T05:37:20.321Z,33.87
2019-01-16T05:40:00.266Z,35.97
2019-01-16T05:43:05.339Z,36.37
2019-01-16T05:45:55.325Z,30.30
2019-01-16T05:48:43.085Z,40.77
2019-01-16T05:51:38.877Z,41.17
2019-01-16T05:54:31.864Z,33.60
2019-01-16T05:57:13.525Z,48.57
2019-01-16T06:00:06.797Z,70.30
2019-01-16T06:03:06.160Z,46.90
2019-01-16T06:06:01.989Z,32.13
2019-01-16T06:08:55.641Z,32.63
2019-01-16T06:11:45.655Z,31.97
2019-01-16T06:14:41.354Z,35.33
2019-01-16T06:17:30.016Z,22.37
2019-01-16T06:20:26.148Z,25.47
2019-01-16T06:23:14.018Z,32.93
2019-01-16T06:26:09.809Z,37.07
2019-01-16T06:28:54.000Z,33.47
2019-01-16T06:31:52.667Z,40.90
2019-01-16T06:34:44.357Z,78.77
2019-01-16T06:37:38.079Z,50.53
2019-01-16T06:40:25.562Z,35.20
2019-01-16T06:43:15.153Z,21.87
2019-01-16T06:46:11.118Z,31.63
2019-01-16T06:48:59.243Z,38.60
2019-01-16T06:51:48.675Z,31.73
2019-01-16T06:54:32.333Z,31.17
2019-01-16T06:57:20.551Z,21.27
2019-01-16T07:00:07.571Z,24.83
2019-01-16T07:03:06.938Z,23.00
2019-01-16T07:05:59.258Z,23.07
2019-01-16T07:08:52.263Z,19.83
2019-01-16T07:11:57.410Z,38.20
2019-01-16T07:14:56.686Z,19.10
2019-01-16T07:17:45.062Z,18.63
2019-01-16T07:20:29.107Z,18.43
2019-01-16T07:23:11.334Z,17.27
2019-01-16T07:26:06.732Z,20.87
2019-01-16T07:28:59.311Z,30.03
2019-01-16T07:31:51.348Z,33.37
2019-01-16T07:34:53.585Z,18.80
2019-01-16T07:37:50.008Z,28.37
2019-01-16T07:40:39.895Z,23.53
2019-01-16T07:44:00.262Z,20.43
2019-01-16T07:46:48.817Z,16.37
2019-01-16T07:49:42.199Z,16.80
2019-01-16T07:52:24.234Z,23.97
2019-01-16T07:55:08.576Z,22.17
2019-01-16T07:58:16.563Z,22.43
2019-01-16T08:01:21.188Z,22.37
2019-01-16T08:04:17.317Z,23.97
2019-01-16T08:07:06.071Z,23.70
2019-01-16T08:09:56.367Z,20.03
2019-01-16T08:12:44.586Z,25.07
2019-01-16T08:15:48.965Z,32.97
2019-01-16T08:18:32.816Z,24.63
2019-01-16T08:21:32.074Z,22.60
2019-01-16T08:24:20.295Z,21.07
2019-01-16T08:27:02.621Z,23.93
2019-01-16T08:29:50.394Z,19.53
2019-01-16T08:32:45.799Z,18.27
2019-01-16T08:35:35.908Z,21.00
2019-01-16T08:38:18.465Z,20.03
2019-01-16T08:41:11.913Z,21.80
2019-01-16T08:44:16.849Z,23.70
2019-01-16T08:47:09.423Z,22.70
2019-01-16T08:49:53.274Z,21.73
2019-01-16T08:52:42.269Z,22.30
2019-01-16T08:55:35.156Z,20.50
2019-01-16T08:58:27.823Z,18.93
2019-01-16T09:01:16.062Z,19.23
2019-01-16T09:04:04.443Z,20.60
2019-01-16T09:06:45.912Z,17.97
2019-01-16T09:09:35.497Z,16.10
2019-01-16T09:12:34.025Z,15.67
2019-01-16T09:15:43.186Z,17.37
2019-01-16T09:18:39.503Z,15.57
2019-01-16T09:21:22.443Z,16.87
2019-01-16T09:24:10.873Z,16.27
2019-01-16T09:27:00.856Z,14.60
2019-01-16T09:29:59.852Z,16.23
2019-01-16T09:32:43.446Z,15.50
2019-01-16T09:35:22.018Z,15.13
2019-01-16T09:38:18.540Z,14.63
2019-01-16T09:40:57.983Z,14.53
2019-01-16T09:43:57.168Z,14.20
2019-01-16T09:46:47.886Z,13.37
2019-01-16T09:49:37.881Z,13.10
2019-01-16T09:52:27.855Z,13.70
2019-01-16T09:55:32.541Z,15.93
2019-01-16T09:58:27.406Z,16.20
2019-01-16T10:01:16.037Z,13.07
2019-01-16T10:04:24.109Z,14.77
2019-01-16T10:07:12.697Z,14.87
2019-01-16T10:10:05.858Z,14.97
2019-01-16T10:12:49.371Z,13.63
2019-01-16T10:15:38.860Z,15.37
2019-01-16T10:18:37.985Z,13.40
2019-01-16T10:21:18.727Z,12.20
2019-01-16T10:24:08.003Z,13.43
2019-01-16T10:27:07.714Z,13.93
2019-01-16T10:30:12.439Z,13.77
2019-01-16T10:33:09.187Z,13.47
2019-01-16T10:36:07.792Z,15.30
2019-01-16T10:38:56.224Z,13.53
2019-01-16T10:41:58.582Z,12.83
2019-01-16T10:44:48.574Z,13.77
2019-01-16T10:47:29.956Z,12.70
2019-01-16T10:50:18.624Z,14.53
2019-01-16T10:53:06.883Z,12.97
2019-01-16T10:55:55.694Z,13.87
2019-01-16T10:58:41.449Z,14.67
2019-01-16T11:01:29.556Z,12.77
2019-01-16T11:04:19.669Z,14.37
2019-01-16T11:07:08.883Z,13.20
2019-01-16T11:10:03.916Z,14.87
2019-01-16T11:12:59.599Z,16.47
2019-01-16T11:15:46.584Z,14.63
2019-01-16T11:18:31.935Z,15.53
2019-01-16T11:21:21.226Z,14.97
2019-01-16T11:24:13.775Z,17.07
2019-01-16T11:27:02.279Z,16.07
2019-01-16T11:30:02.811Z,14.03
2019-01-16T11:33:04.004Z,14.40
2019-01-16T11:36:02.851Z,14.80
2019-01-16T11:39:04.437Z,15.90
2019-01-16T11:41:54.295Z,15.63
2019-01-16T11:44:43.532Z,12.00
2019-01-16T11:47:26.391Z,14.30
2019-01-16T11:50:25.474Z,14.00
2019-01-16T11:53:13.676Z,15.10
2019-01-16T11:56:02.340Z,12.40
2019-01-16T11:58:51.938Z,10.60
2019-01-16T12:01:56.620Z,13.73
2019-01-16T12:04:52.199Z,13.67
2019-01-16T12:07:45.783Z,13.40
2019-01-16T12:10:33.947Z,13.17
2019-01-16T12:13:23.864Z,13.13
2019-01-16T12:16:06.806Z,15.10
2019-01-16T12:18:55.948Z,14.33
2019-01-16T12:21:44.605Z,15.40
2019-01-16T12:24:23.343Z,14.33
2019-01-16T12:27:11.651Z,12.60
2019-01-16T12:30:07.354Z,14.87
2019-01-16T12:32:57.291Z,13.33
2019-01-16T12:35:53.526Z,13.00
2019-01-16T12:38:43.409Z,15.27
2019-01-16T12:41:45.675Z,17.30
2019-01-16T12:44:34.586Z,14.30
2019-01-16T12:47:15.763Z,13.80
2019-01-16T12:50:17.065Z,14.20
2019-01-16T12:53:09.740Z,12.77
2019-01-16T12:56:01.591Z,16.53
2019-01-16T12:59:03.218Z,13.60
2019-01-16T13:02:11.355Z,13.53
2019-01-16T13:04:59.890Z,13.20
2019-01-16T13:07:44.935Z,12.77
2019-01-16T13:10:34.838Z,15.33
2019-01-16T13:13:24.925Z,16.27
2019-01-16T13:16:26.565Z,16.77
2019-01-16T13:19:49.361Z,13.43
2019-01-16T13:22:35.534Z,13.87
2019-01-16T13:25:24.121Z,17.93
2019-01-16T13:28:28.215Z,21.87
2019-01-16T13:31:22.695Z,17.87
2019-01-16T13:34:10.669Z,19.17
2019-01-16T13:36:55.029Z,15.33
2019-01-16T13:39:36.312Z,17.33
2019-01-16T13:42:32.175Z,16.93
2019-01-16T13:45:20.825Z,18.43
2019-01-16T13:48:01.752Z,19.10
2019-01-16T13:50:42.936Z,14.73
2019-01-16T13:53:33.919Z,14.37
2019-01-16T13:56:33.101Z,14.37
2019-01-16T14:03:23.124Z,17.03
2019-01-16T14:06:47.075Z,14.00
2019-01-16T14:09:43.285Z,15.80
2019-01-16T14:12:42.124Z,14.63
2019-01-16T14:15:47.781Z,13.67
2019-01-16T14:18:46.254Z,18.00
2019-01-16T14:21:57.009Z,13.23
2019-01-16T14:24:58.645Z,14.43
2019-01-16T14:27:54.785Z,13.93
2019-01-16T14:30:59.349Z,14.50
2019-01-16T14:33:49.694Z,14.03
2019-01-16T14:36:57.865Z,13.73
2019-01-16T14:39:52.060Z,16.87
2019-01-16T14:42:29.066Z,14.00
2019-01-16T14:45:24.028Z,13.83
2019-01-16T14:48:01.585Z,13.57
2019-01-16T14:51:09.126Z,11.57
2019-01-16T14:53:54.972Z,13.00
2019-01-16T14:56:43.640Z,15.47
2019-01-16T14:59:46.070Z,13.30
2019-01-16T15:02:38.395Z,12.77
2019-01-16T15:05:32.421Z,12.50
2019-01-16T15:08:20.503Z,14.93
2019-01-16T15:11:08.289Z,12.53
2019-01-16T15:14:13.578Z,12.37
2019-01-16T15:17:05.915Z,11.03
2019-01-16T15:19:54.550Z,16.20
2019-01-16T15:22:50.946Z,11.13
2019-01-16T15:25:37.592Z,11.17
2019-01-16T15:28:19.484Z,14.03
2019-01-16T15:31:12.809Z,11.73
2019-01-16T15:34:11.428Z,13.63
2019-01-16T15:37:00.986Z,14.53
2019-01-16T15:40:10.240Z,16.30
2019-01-16T15:42:58.878Z,12.07
2019-01-16T15:45:47.123Z,14.23
2019-01-16T15:48:49.240Z,17.57
2019-01-16T15:51:37.807Z,16.03
2019-01-16T15:54:38.403Z,16.93
2019-01-16T15:57:26.834Z,16.20
2019-01-16T16:00:15.177Z,12.23
2019-01-16T16:03:15.381Z,13.53
2019-01-16T16:06:17.824Z,12.47
2019-01-16T16:09:11.444Z,10.87
2019-01-16T16:12:30.435Z,12.87
2019-01-16T16:15:35.138Z,12.20
2019-01-16T16:18:39.864Z,12.80
2019-01-16T16:21:27.683Z,16.57
2019-01-16T16:24:33.878Z,12.57
2019-01-16T16:27:32.898Z,11.00
2019-01-16T16:30:32.720Z,13.07
2019-01-16T16:33:26.097Z,12.40
2019-01-16T16:36:21.765Z,12.00
2019-01-16T16:39:21.841Z,12.90
2019-01-16T16:42:05.935Z,12.00
2019-01-16T16:45:01.410Z,11.87
2019-01-16T16:48:03.427Z,11.07
2019-01-16T16:50:51.587Z,11.50
2019-01-16T16:53:40.861Z,9.20
2019-01-16T16:56:36.550Z,10.33
2019-01-16T16:59:25.144Z,12.40
2019-01-16T17:02:30.149Z,13.63
2019-01-16T17:05:18.304Z,12.00
2019-01-16T17:08:02.890Z,12.30
2019-01-16T17:10:53.637Z,10.53
2019-01-16T17:13:49.356Z,12.57
2019-01-16T17:16:34.836Z,12.47
2019-01-16T17:19:33.739Z,13.70
2019-01-16T17:22:35.613Z,11.17
2019-01-16T17:25:35.113Z,12.40
2019-01-16T17:28:25.480Z,10.27
2019-01-16T17:31:14.136Z,13.10
2019-01-16T17:34:18.868Z,10.70
2019-01-16T17:37:07.761Z,11.83
2019-01-16T17:40:06.677Z,12.03
2019-01-16T17:42:55.206Z,11.37
2019-01-16T17:45:43.544Z,11.83
2019-01-16T17:48:33.142Z,13.50
2019-01-16T17:51:26.488Z,11.40
2019-01-16T17:54:15.536Z,13.00
2019-01-16T17:57:05.555Z,11.93
2019-01-16T18:00:03.465Z,12.13
2019-01-16T18:02:56.255Z,15.27
2019-01-16T18:05:57.080Z,11.43
2019-01-16T18:09:14.224Z,14.77
2019-01-16T18:12:03.803Z,14.30
2019-01-16T18:14:41.245Z,14.77
2019-01-16T18:17:36.599Z,14.77
2019-01-16T18:20:29.639Z,15.03
2019-01-16T18:23:18.063Z,11.00
2019-01-16T18:26:10.382Z,15.03
2019-01-16T18:28:48.260Z,13.57
2019-01-16T18:31:37.908Z,13.57
2019-01-16T18:34:33.755Z,11.53
2019-01-16T18:37:36.021Z,11.33
2019-01-16T18:40:45.557Z,12.57
2019-01-16T18:43:39.898Z,14.70
2019-01-16T18:46:32.596Z,15.83
2019-01-16T18:49:22.187Z,12.57
2019-01-16T18:52:10.815Z,13.23
2019-01-16T18:54:59.725Z,14.17
2019-01-16T18:57:51.133Z,31.37
2019-01-16T19:00:51.022Z,15.10
2019-01-16T19:03:40.842Z,15.37
2019-01-16T19:06:28.827Z,14.77
2019-01-16T19:09:17.805Z,15.97
2019-01-16T19:12:13.419Z,13.57
2019-01-16T19:15:12.232Z,14.10
2019-01-16T19:18:18.419Z,13.63
2019-01-16T19:21:08.156Z,12.10
2019-01-16T19:24:03.291Z,12.33
2019-01-16T19:26:45.055Z,13.47
2019-01-16T19:29:50.762Z,17.70
2019-01-16T19:32:52.629Z,13.10
2019-01-16T19:35:53.455Z,13.73
2019-01-16T19:39:00.906Z,13.17
2019-01-16T19:41:49.449Z,11.83
2019-01-16T19:44:38.523Z,12.07
2019-01-16T19:48:02.151Z,14.70
2019-01-16T19:50:57.098Z,16.13
2019-01-16T19:53:57.792Z,14.87
2019-01-16T19:57:04.249Z,14.10
2019-01-16T20:00:03.187Z,16.40
2019-01-16T20:02:51.113Z,17.00
2019-01-16T20:05:43.995Z,16.40
2019-01-16T20:09:03.465Z,13.13
2019-01-16T20:12:09.429Z,15.67
2019-01-16T20:14:52.339Z,15.03
2019-01-16T20:17:52.674Z,17.33
2019-01-16T20:20:48.414Z,16.03
2019-01-16T20:23:49.432Z,16.97
2019-01-16T20:26:39.297Z,15.40
2019-01-16T20:29:44.248Z,16.60
2019-01-16T20:32:23.499Z,16.73
2019-01-16T20:35:26.175Z,18.50
2019-01-16T20:38:07.998Z,18.20
2019-01-16T20:40:58.604Z,17.40
2019-01-16T20:43:48.544Z,18.50
2019-01-16T20:46:34.987Z,19.70
2019-01-16T20:49:21.690Z,15.17
2019-01-16T20:52:07.792Z,17.93
2019-01-16T20:55:01.012Z,15.67
2019-01-16T20:58:08.295Z,20.23
2019-01-16T21:00:54.101Z,17.47
2019-01-16T21:03:49.886Z,20.80
2019-01-16T21:07:07.157Z,21.07
2019-01-16T21:10:15.062Z,20.33
2019-01-16T21:13:03.504Z,18.33
2019-01-16T21:15:56.825Z,18.17
2019-01-16T21:18:45.816Z,18.27
2019-01-16T21:21:34.078Z,22.27
2019-01-16T21:24:14.204Z,19.67
2019-01-16T21:27:08.479Z,19.10
2019-01-16T21:30:13.972Z,28.50
2019-01-16T21:33:10.332Z,36.43
2019-01-16T21:35:58.878Z,42.43
2019-01-16T21:38:54.956Z,21.40
2019-01-16T21:42:24.831Z,20.53
2019-01-16T21:45:08.548Z,18.80
2019-01-16T21:48:03.100Z,17.80
2019-01-16T21:50:56.758Z,16.83
2019-01-16T21:54:02.337Z,15.83
2019-01-16T21:56:57.879Z,14.87
2019-01-16T21:59:41.095Z,21.60
2019-01-16T22:02:42.936Z,18.40
2019-01-16T22:05:25.262Z,18.80
2019-01-16T22:08:24.034Z,19.67
2019-01-16T22:11:34.723Z,16.07
2019-01-16T22:14:27.631Z,19.00
2019-01-16T22:17:17.619Z,17.70
2019-01-16T22:20:11.717Z,17.60
2019-01-16T22:23:00.990Z,16.97
2019-01-16T22:25:45.729Z,21.53
2019-01-16T22:28:30.407Z,16.97
2019-01-16T22:31:22.666Z,18.07
2019-01-16T22:34:13.760Z,17.70
2019-01-16T22:37:00.566Z,17.23
2019-01-16T22:39:53.427Z,19.70
2019-01-16T22:42:41.560Z,18.63
2019-01-16T22:45:37.075Z,21.10
2019-01-16T22:48:39.068Z,17.63
2019-01-16T22:51:37.635Z,15.47
2019-01-16T22:54:30.441Z,15.50
2019-01-16T22:57:19.771Z,16.10
2019-01-16T23:00:01.445Z,18.57
2019-01-16T23:02:47.447Z,15.43
2019-01-16T23:05:52.660Z,16.20
2019-01-16T23:08:42.814Z,17.80
2019-01-16T23:11:38.392Z,15.83
2019-01-16T23:14:20.520Z,15.93
2019-01-16T23:17:09.536Z,15.37
2019-01-16T23:20:05.167Z,13.57
2019-01-16T23:22:47.608Z,12.27
2019-01-16T23:25:37.937Z,13.97
2019-01-16T23:29:03.684Z,15.20
2019-01-16T23:32:09.541Z,16.67
2019-01-16T23:35:08.336Z,12.50
2019-01-16T23:38:17.360Z,15.50
2019-01-16T23:41:22.202Z,13.40
2019-01-16T23:44:21.333Z,17.03
2019-01-16T23:47:08.715Z,14.03
2019-01-16T23:49:52.148Z,15.83
2019-01-16T23:52:39.763Z,13.50
2019-01-16T23:55:35.913Z,13.17
2019-01-16T23:58:24.449Z,13.20
